Latest Weather Observations for Tibooburra Airport

IDN60801

Issued at 6:02 pm EST Monday 21 August 2017 (issued every 30 minutes, with the page automatically refreshed every 10 minutes)

About weather observations | Map of weather stations | Latest weather observations for NSW | Other Formats
Station Details ID: 046126 Name: TIBOOBURRA AIRPORT Lat: -29.44 Lon: 142.06 Height: 176.4 m
Data from the previous 72 hours. | See also: Recent months at Tibooburra Airport
Date/Time
EST
Temp
°C
App
Temp
°C
Dew
Point
°C
Rel
Hum
%
Delta-T
°C
Wind Press
QNH
hPa
Press
MSL
hPa
Rain since
9am
mm
Dir  Spd
km/h
Gust
km/h
Spd
kts
Gust
kts
21/06:00pm 20.1 11.9 0.5 27 8.8 WSW 33 43 18 23 1013.0 1012.9 0.0
21/05:30pm 21.0 12.8 0.2 25 9.4 WSW 33 46 18 25 1012.5 1012.4 0.0
21/05:00pm 21.8 13.0 -1.5 21 10.2 W 35 46 19 25 1012.0 1011.9 0.0
21/04:30pm 22.6 13.7 -2.2 19 10.8 W 35 46 19 25 1011.3 1011.1 0.0
21/04:00pm 23.1 14.3 -4.1 16 11.5 W 33 46 18 25 1011.1 1010.9 0.0
21/03:30pm 23.3 13.8 -7.7 12 12.2 WNW 35 52 19 28 1011.0 1010.8 0.0
21/03:00pm 23.7 14.6 -9.7 10 12.8 WNW 32 46 17 25 1010.9 1010.7 0.0
21/02:30pm 23.2 13.9 -10.1 10 12.6 WNW 33 44 18 24 1011.0 1010.8 0.0
21/02:00pm 23.7 13.9 -11.0 9 12.9 WNW 35 46 19 25 1010.9 1010.7 0.0
21/01:30pm 23.7 13.2 -11.0 9 12.9 WNW 39 52 21 28 1011.1 1010.9 0.0
21/01:19pm 24.0 14.1 -12.2 8 13.2 NW 35 54 19 29 1011.3 1011.1 0.0
21/01:00pm 23.3 12.6 -12.8 8 13.0 NW 39 52 21 28 1011.4 1011.2 0.0
21/12:43pm 23.3 12.6 -12.8 8 12.9 NW 39 57 21 31 1011.7 1011.5 0.0
21/12:30pm 23.3 12.6 -12.8 8 12.9 WNW 39 54 21 29 1012.0 1011.9 0.0
21/12:14pm 23.0 12.3 -13.0 8 12.8 NW 39 59 21 32 1012.1 1012.0 0.0
21/12:00pm 22.7 12.1 -11.8 9 12.5 NW 39 50 21 27 1012.4 1012.3 0.0
21/11:47am 23.2 12.6 -11.4 9 12.7 NW 39 61 21 33 1012.4 1012.3 0.0
21/11:30am 22.4 11.4 -12.0 9 12.4 NW 41 57 22 31 1013.1 1013.0 0.0
21/11:23am 22.2 12.3 -12.1 9 12.3 NNW 35 57 19 31 1013.2 1013.1 0.0
21/11:00am 21.2 11.4 -11.6 10 11.7 NNW 35 46 19 25 1013.3 1013.2 0.0
21/10:30am 19.3 10.3 -8.8 14 10.4 N 32 41 17 22 1013.7 1013.6 0.0
21/10:00am 18.1 9.0 -9.8 14 10.0 N 32 43 17 23 1013.8 1013.7 0.0
21/09:30am 16.2 8.7 -8.1 18 8.8 NNE 24 32 13 17 1013.9 1013.8 0.0
21/09:00am 14.7 7.4 -6.8 22 7.9 NNE 24 35 13 19 1014.0 1013.9 0.0
21/08:30am 13.2 6.7 -6.4 25 7.1 NNE 20 28 11 15 1014.0 1013.9 0.0
21/08:00am 12.4 5.5 -6.5 26 6.8 NNE 22 28 12 15 1013.8 1013.7 0.0
21/07:30am 12.0 5.1 -6.4 27 6.6 NNE 22 30 12 16 1013.7 1013.6 0.0
21/07:00am 11.6 5.7 -5.8 29 6.3 NNE 17 20 9 11 1013.7 1013.6 0.0
21/06:30am 11.2 5.7 -5.3 31 6.0 NNE 15 20 8 11 1013.6 1013.5 0.0
21/06:00am 11.0 5.5 -5.5 31 6.0 NE 15 17 8 9 1013.8 1013.7 0.0
21/05:30am 11.1 5.9 -5.8 30 6.1 NE 13 15 7 8 1013.8 1013.7 0.0
21/05:00am 12.0 6.8 -5.9 28 6.5 NNE 13 17 7 9 1014.2 1014.1 0.0
21/04:30am 12.0 7.6 -5.9 28 6.5 NNE 9 11 5 6 1014.4 1014.3 0.0
21/04:00am 12.3 7.5 -5.7 28 6.6 NNE 11 15 6 8 1014.2 1014.1 0.0
21/03:30am 12.6 7.0 -6.4 26 6.8 NNE 15 20 8 11 1014.6 1014.5 0.0
21/03:00am 12.9 8.4 -6.6 25 7.0 NNE 9 13 5 7 1014.9 1014.8 0.0
21/02:30am 13.0 7.1 -6.0 26 6.9 NNE 17 24 9 13 1014.4 1014.3 0.0
21/02:00am 12.6 6.2 -4.9 29 6.5 NE 20 26 11 14 1014.3 1014.2 0.0
21/01:30am 12.5 6.8 -3.7 32 6.2 NNE 17 20 9 11 1015.3 1015.2 0.0
21/01:00am 12.7 6.3 -4.9 29 6.6 NNE 20 30 11 16 1015.8 1015.7 0.0
21/12:30am 13.1 5.7 -7.0 24 7.2 NNE 24 30 13 16 1015.5 1015.4 0.0
21/12:00am 13.2 6.2 -7.4 23 7.3 NNE 22 28 12 15 1016.0 1015.9 0.0
 
Date/Time
EST
Temp
°C
App
Temp
°C
Dew
Point
°C
Rel
Hum
%
Delta-T
°C
Wind Press
QNH
hPa
Press
MSL
hPa
Rain since
9am
mm
Dir  Spd
km/h
Gust
km/h
Spd
kts
Gust
kts
20/11:30pm 13.2 6.4 -9.2 20 7.6 NE 20 26 11 14 1016.6 1016.5 0.0
20/11:00pm 13.2 6.5 -8.6 21 7.5 NE 20 24 11 13 1017.1 1017.0 0.0
20/10:30pm 13.3 6.2 -7.9 22 7.5 NE 22 26 12 14 1017.6 1017.5 0.0
20/10:00pm 13.1 6.9 -9.3 20 7.6 NE 17 20 9 11 1018.0 1017.9 0.0
20/09:30pm 12.7 7.3 -9.0 21 7.4 NE 13 17 7 9 1018.4 1018.3 0.0
20/09:00pm 12.0 7.3 -9.0 22 7.1 ENE 9 11 5 6 1018.6 1018.5 0.0
20/08:30pm 11.9 7.2 -9.1 22 7.1 ENE 9 11 5 6 1018.6 1018.5 0.0
20/08:00pm 12.1 7.8 -9.5 21 7.2 ENE 7 9 4 5 1019.0 1018.9 0.0
20/07:30pm 12.4 7.3 -9.3 21 7.3 ENE 11 11 6 6 1018.8 1018.7 0.0
20/07:00pm 13.0 8.3 -9.4 20 7.6 NE 9 11 5 6 1019.0 1018.9 0.0
20/06:30pm 13.5 8.8 -9.6 19 7.8 NE 9 11 5 6 1018.9 1018.8 0.0
20/06:00pm 14.2 9.1 -9.7 18 8.1 NE 11 13 6 7 1019.0 1018.9 0.0
20/05:30pm 14.7 9.2 -10.1 17 8.5 NE 13 22 7 12 1019.1 1019.0 0.0
20/05:00pm 14.9 8.9 -10.7 16 8.6 NE 15 20 8 11 1019.3 1019.2 0.0
20/04:30pm 14.9 8.6 -10.7 16 8.6 NE 17 20 9 11 1019.4 1019.3 0.0
20/04:00pm 15.0 8.4 -9.1 18 8.4 NE 19 24 10 13 1019.3 1019.2 0.0
20/03:30pm 15.3 8.7 -9.6 17 8.6 NE 19 24 10 13 1019.8 1019.7 0.0
20/03:00pm 15.2 8.5 -10.4 16 8.7 NE 19 24 10 13 1020.5 1020.4 0.0
20/02:30pm 15.1 8.9 -9.0 18 8.5 NE 17 26 9 14 1020.9 1020.8 0.0
20/02:00pm 15.1 7.9 -9.0 18 8.4 NE 22 30 12 16 1021.0 1020.9 0.0
20/01:30pm 15.2 8.5 -8.2 19 8.4 NE 20 26 11 14 1021.6 1021.6 0.0
20/01:00pm 14.6 7.9 -8.1 20 8.0 ENE 20 30 11 16 1022.4 1022.3 0.0
20/12:30pm 14.3 7.0 -6.5 23 7.6 ENE 24 35 13 19 1023.2 1023.1 0.0
20/12:00pm 14.4 7.1 -6.4 23 7.6 ENE 24 35 13 19 1023.9 1023.8 0.0
20/11:30am 13.8 6.2 -5.3 26 7.2 ENE 26 35 14 19 1024.8 1024.7 0.0
20/11:00am 13.3 5.3 -5.3 27 6.9 E 28 35 15 19 1025.5 1025.4 0.0
20/10:30am 12.3 4.3 -5.7 28 6.6 ENE 28 35 15 19 1025.8 1025.7 0.0
20/10:00am 11.5 3.5 -5.4 30 6.1 ENE 28 35 15 19 1026.3 1026.3 0.0
20/09:30am 10.3 2.4 -5.2 33 5.6 ENE 28 35 15 19 1026.5 1026.5 0.0
20/09:00am 9.0 2.6 -4.9 37 4.9 E 20 28 11 15 1026.6 1026.6 0.0
20/08:30am 8.0 2.2 -4.8 40 4.5 E 17 22 9 12 1026.8 1026.8 0.0
20/08:00am 6.0 1.3 -4.7 46 3.7 E 11 13 6 7 1026.7 1026.7 0.0
20/07:30am 5.0 0.3 -5.1 48 3.4 E 11 13 6 7 1026.2 1026.2 0.0
20/07:00am 4.5 -0.6 -5.5 48 3.3 E 13 15 7 8 1025.7 1025.6 0.0
20/06:30am 4.5 -0.2 -5.3 49 3.3 E 11 15 6 8 1025.9 1025.8 0.0
20/06:00am 4.1 -0.7 -5.6 49 3.2 E 11 15 6 8 1025.6 1025.5 0.0
20/05:30am 4.4 -0.4 -5.6 48 3.3 ESE 11 13 6 7 1025.3 1025.2 0.0
20/05:00am 5.2 0.1 -5.5 46 3.6 ESE 13 15 7 8 1025.2 1025.1 0.0
20/04:30am 5.5 1.2 -5.2 46 3.6 ESE 9 11 5 6 1025.1 1025.0 0.0
20/04:00am 5.7 0.6 -5.3 45 3.7 ESE 13 15 7 8 1025.1 1025.0 0.0
20/03:30am 6.0 1.3 -5.3 44 3.8 ESE 11 11 6 6 1025.1 1025.0 0.0
20/03:00am 6.3 1.2 -5.3 43 3.9 ESE 13 15 7 8 1025.0 1024.9 0.0
20/02:30am 6.7 1.6 -5.3 42 4.1 ESE 13 15 7 8 1025.2 1025.1 0.0
20/02:00am 7.4 2.7 -4.7 42 4.2 SE 11 13 6 7 1025.5 1025.4 0.0
20/01:30am 7.7 2.7 -4.7 41 4.4 SE 13 15 7 8 1025.4 1025.3 0.0
20/01:00am 7.9 3.6 -4.5 41 4.4 SSE 9 11 5 6 1025.8 1025.7 0.0
20/12:30am 7.9 4.0 -4.2 42 4.3 SSE 7 9 4 5 1025.9 1025.8 0.0
20/12:00am 7.9 3.6 -4.5 41 4.4 SSE 9 11 5 6 1026.1 1026.1 0.0
 
Date/Time
EST
Temp
°C
App
Temp
°C
Dew
Point
°C
Rel
Hum
%
Delta-T
°C
Wind Press
QNH
hPa
Press
MSL
hPa
Rain since
9am
mm
Dir  Spd
km/h
Gust
km/h
Spd
kts
Gust
kts
19/11:30pm 8.5 4.3 -4.3 40 4.6 SSE 9 13 5 7 1026.3 1026.3 0.0
19/11:00pm 9.1 4.5 -4.1 39 4.8 SSE 11 13 6 7 1026.4 1026.4 0.0
19/10:30pm 9.6 5.0 -4.0 38 5.0 SSE 11 15 6 8 1026.4 1026.4 0.0
19/10:00pm 9.9 5.0 -3.7 38 5.0 SSE 13 15 7 8 1026.4 1026.4 0.0
19/09:30pm 10.5 5.9 -3.9 36 5.4 SSE 11 13 6 7 1026.6 1026.6 0.0
19/09:00pm 11.1 6.5 -4.1 34 5.6 SSE 11 15 6 8 1026.4 1026.4 0.0
19/08:30pm 11.3 6.7 -4.0 34 5.7 SSE 11 13 6 7 1026.3 1026.3 0.0
19/08:00pm 12.1 7.5 -4.1 32 6.1 SSE 11 13 6 7 1026.1 1026.1 0.0
19/07:30pm 13.2 8.2 -4.0 30 6.6 SSE 13 15 7 8 1026.1 1026.1 0.0
19/07:00pm 13.9 8.6 -3.8 29 6.8 SSE 15 19 8 10 1025.8 1025.7 0.0
19/06:30pm 14.7 8.4 -4.1 27 7.3 SSE 20 26 11 14 1025.7 1025.6 0.0
19/06:00pm 15.4 8.7 -4.0 26 7.6 SSE 22 30 12 16 1025.5 1025.4 0.0
19/05:30pm 16.1 9.1 -3.9 25 7.9 SSE 24 32 13 17 1025.6 1025.5 0.0
19/05:00pm 16.7 9.3 -3.9 24 8.2 S 26 33 14 18 1025.0 1024.9 0.0
19/04:30pm 16.9 9.9 -3.2 25 8.2 S 24 35 13 19 1024.9 1024.8 0.0
19/04:00pm 17.1 9.7 -3.6 24 8.3 SSE 26 35 14 19 1025.0 1024.9 0.0
19/03:30pm 17.2 9.7 -4.1 23 8.5 S 26 35 14 19 1025.2 1025.1 0.0
19/03:00pm 17.2 10.2 -3.5 24 8.3 S 24 35 13 19 1025.3 1025.2 0.0
19/02:30pm 16.4 9.4 -3.1 26 7.9 SSE 24 32 13 17 1025.7 1025.6 0.0
19/02:00pm 16.8 10.7 -2.3 27 7.8 SSE 20 32 11 17 1026.0 1025.9 0.0
19/01:30pm 16.7 10.3 -1.9 28 7.7 S 22 37 12 20 1026.4 1026.4 0.0
19/01:00pm 15.5 9.1 -1.5 31 7.0 S 22 33 12 18 1026.9 1026.9 0.0
19/12:30pm 15.2 8.7 -2.2 30 7.1 S 22 32 12 17 1027.5 1027.5 0.0
19/12:00pm 14.8 9.5 -0.5 35 6.4 SSE 17 28 9 15 1028.0 1028.0 0.0
19/11:30am 14.3 8.6 -0.5 36 6.2 SSE 19 30 10 16 1028.5 1028.4 0.0
19/11:00am 13.7 8.2 0.4 40 5.6 S 19 30 10 16 1028.9 1028.8 0.0
19/10:30am 12.9 7.4 0.6 43 5.2 SSE 19 28 10 15 1029.0 1028.9 0.0
19/10:00am 12.3 6.2 0.7 45 4.9 SSE 22 28 12 15 1029.2 1029.1 0.0
19/09:30am 12.2 6.2 0.9 46 4.8 SSE 22 28 12 15 1029.2 1029.1 0.0
19/09:00am 10.8 5.6 0.2 48 4.3 S 17 20 9 11 1029.1 1029.0 0.0
19/08:30am 9.5 5.1 0.1 52 3.8 SSW 13 17 7 9 1028.8 1028.7 0.0
19/08:00am 7.8 4.0 -0.4 56 3.2 SSW 9 11 5 6 1028.4 1028.3 0.0
19/07:30am 5.9 1.7 -1.0 61 2.6 SW 11 11 6 6 1027.8 1027.8 0.0
19/07:00am 5.7 1.5 -1.2 61 2.6 SSW 11 13 6 7 1027.4 1027.4 0.0
19/06:30am 6.4 1.8 -1.0 59 2.8 SSW 13 15 7 8 1027.0 1027.0 0.0
19/06:00am 6.4 1.8 -1.2 58 2.9 SSW 13 13 7 7 1026.6 1026.6 0.0
19/05:30am 6.6 2.3 -1.3 57 3.0 SSW 11 11 6 6 1026.4 1026.4 0.0
19/05:00am 7.0 3.1 -1.7 54 3.3 SSW 9 11 5 6 1026.1 1026.1 0.0
19/04:30am 7.2 3.7 -1.7 53 3.4 SW 7 9 4 5 1025.9 1025.8 0.0
19/04:00am 7.4 3.5 -1.8 52 3.5 SSW 9 11 5 6 1025.8 1025.7 0.0
19/03:30am 7.7 3.3 -2.3 49 3.7 S 11 13 6 7 1025.7 1025.6 0.0
19/03:00am 8.3 3.2 -2.0 48 3.9 SSW 15 15 8 8 1025.8 1025.7 0.0
19/02:30am 8.2 3.4 -2.4 47 4.0 SSW 13 13 7 7 1025.8 1025.7 0.0
19/02:00am 8.8 3.6 -2.5 45 4.2 SSW 15 17 8 9 1025.9 1025.8 0.0
19/01:30am 8.5 3.6 -3.0 44 4.3 SSW 13 15 7 8 1025.9 1025.8 0.0
19/01:00am 8.3 3.4 -3.5 43 4.3 SW 13 13 7 7 1025.7 1025.6 0.0
19/12:30am 8.3 3.7 -3.8 42 4.4 SW 11 13 6 7 1025.7 1025.6 0.0
19/12:00am 8.9 3.6 -3.6 41 4.6 SW 15 15 8 8 1025.5 1025.4 0.0
 
Date/Time
EST
Temp
°C
App
Temp
°C
Dew
Point
°C
Rel
Hum
%
Delta-T
°C
Wind Press
QNH
hPa
Press
MSL
hPa
Rain since
9am
mm
Dir  Spd
km/h
Gust
km/h
Spd
kts
Gust
kts
18/11:30pm 9.3 4.8 -3.6 40 4.8 WSW 11 13 6 7 1025.5 1025.4 0.0
18/11:00pm 9.7 5.2 -3.6 39 4.9 WSW 11 13 6 7 1025.6 1025.5 0.0
18/10:30pm 9.9 5.3 -3.7 38 5.1 WSW 11 11 6 6 1025.7 1025.6 0.0
18/10:00pm 10.4 5.9 -3.6 37 5.2 SW 11 13 6 7 1025.6 1025.5 0.0
18/09:30pm 11.0 6.5 -3.5 36 5.5 SW 11 13 6 7 1025.5 1025.4 0.0
18/09:00pm 12.0 7.5 -3.4 34 5.9 SW 11 13 6 7 1025.2 1025.1 0.0
18/08:30pm 12.6 7.7 -3.6 32 6.2 SSW 13 13 7 7 1025.0 1024.9 0.0
18/08:00pm 13.4 8.1 -3.4 31 6.5 SW 15 17 8 9 1024.6 1024.5 0.0
18/07:30pm 14.2 8.9 -3.6 29 7.0 SW 15 19 8 10 1024.5 1024.4 0.0
18/07:00pm 15.1 9.0 -3.7 27 7.4 SW 19 26 10 14 1024.0 1023.9 0.0
18/06:30pm 15.7 9.6 -3.7 26 7.7 SSW 19 24 10 13 1023.7 1023.6 0.0

Other Formats:

Comma delimited format used in spreadsheet applications
http://www.bom.gov.au/fwo/IDN60801/IDN60801.95485.axf

JavaScript Object Notation format (JSON) in row-major order
http://www.bom.gov.au/fwo/IDN60801/IDN60801.95485.json